sensor_id;sensor_type;location;lat;lon;timestamp;pressure;altitude;pressure_sealevel;temperature;humidity
30421;BME280;17218;54.070;10.012;2023-04-02T00:02:26;101470.47;;;0.80;100.00
30421;BME280;17218;54.070;10.012;2023-04-02T00:08:00;101481.91;;;0.70;100.00
30421;BME280;17218;54.070;10.012;2023-04-02T00:10:30;101491.34;;;0.71;100.00
30421;BME280;17218;54.070;10.012;2023-04-02T00:13:01;101493.94;;;0.73;100.00
30421;BME280;17218;54.070;10.012;2023-04-02T00:15:29;101490.25;;;0.66;100.00
30421;BME280;17218;54.070;10.012;2023-04-02T00:17:55;101497.75;;;0.63;100.00
30421;BME280;17218;54.070;10.012;2023-04-02T00:20:23;101500.53;;;0.68;100.00
30421;BME280;17218;54.070;10.012;2023-04-02T00:22:50;101507.34;;;0.69;100.00
30421;BME280;17218;54.070;10.012;2023-04-02T00:25:17;101514.34;;;0.73;100.00
30421;BME280;17218;54.070;10.012;2023-04-02T00:27:44;101514.28;;;0.71;100.00
30421;BME280;17218;54.070;10.012;2023-04-02T00:30:13;101504.03;;;0.70;100.00
30421;BME280;17218;54.070;10.012;2023-04-02T00:32:41;101511.66;;;0.70;100.00
30421;BME280;17218;54.070;10.012;2023-04-02T00:35:10;101519.09;;;0.65;100.00
30421;BME280;17218;54.070;10.012;2023-04-02T00:37:38;101514.00;;;0.65;100.00
30421;BME280;17218;54.070;10.012;2023-04-02T00:40:13;101514.00;;;0.65;100.00
30421;BME280;17218;54.070;10.012;2023-04-02T00:42:42;101533.75;;;0.69;100.00
30421;BME280;17218;54.070;10.012;2023-04-02T00:45:18;101528.72;;;0.71;100.00
30421;BME280;17218;54.070;10.012;2023-04-02T00:47:46;101525.22;;;0.69;100.00
30421;BME280;17218;54.070;10.012;2023-04-02T00:50:19;101520.78;;;0.65;100.00
30421;BME280;17218;54.070;10.012;2023-04-02T00:52:49;101528.56;;;0.68;100.00
30421;BME280;17218;54.070;10.012;2023-04-02T00:55:20;101529.22;;;0.64;100.00
30421;BME280;17218;54.070;10.012;2023-04-02T00:57:50;101540.16;;;0.61;100.00
30421;BME280;17218;54.070;10.012;2023-04-02T01:00:21;101542.88;;;0.64;100.00
30421;BME280;17218;54.070;10.012;2023-04-02T01:06:02;101546.88;;;0.59;100.00
30421;BME280;17218;54.070;10.012;2023-04-02T01:08:43;101546.78;;;0.57;100.00
30421;BME280;17218;54.070;10.012;2023-04-02T01:11:30;101557.88;;;0.58;100.00
30421;BME280;17218;54.070;10.012;2023-04-02T01:14:01;101570.69;;;0.59;100.00
30421;BME280;17218;54.070;10.012;2023-04-02T01:16:38;101562.25;;;0.61;100.00
30421;BME280;17218;54.070;10.012;2023-04-02T01:19:28;101560.78;;;0.66;100.00
30421;BME280;17218;54.070;10.012;2023-04-02T01:22:05;101571.34;;;0.74;100.00
30421;BME280;17218;54.070;10.012;2023-04-02T01:24:34;101584.25;;;0.77;100.00
30421;BME280;17218;54.070;10.012;2023-04-02T01:27:04;101581.47;;;0.90;100.00
30421;BME280;17218;54.070;10.012;2023-04-02T01:29:34;101585.97;;;0.96;100.00
30421;BME280;17218;54.070;10.012;2023-04-02T01:32:05;101580.78;;;0.94;100.00
30421;BME280;17218;54.070;10.012;2023-04-02T01:34:33;101585.75;;;0.91;100.00
30421;BME280;17218;54.070;10.012;2023-04-02T01:37:09;101588.38;;;0.93;100.00
30421;BME280;17218;54.070;10.012;2023-04-02T01:39:47;101590.28;;;0.97;100.00
30421;BME280;17218;54.070;10.012;2023-04-02T01:42:20;101604.03;;;1.01;100.00
30421;BME280;17218;54.070;10.012;2023-04-02T01:44:53;101598.94;;;1.01;100.00
30421;BME280;17218;54.070;10.012;2023-04-02T01:47:24;101620.97;;;0.99;100.00
30421;BME280;17218;54.070;10.012;2023-04-02T01:49:56;101617.25;;;0.92;100.00
30421;BME280;17218;54.070;10.012;2023-04-02T01:52:32;101614.63;;;0.90;100.00
30421;BME280;17218;54.070;10.012;2023-04-02T01:54:59;101618.41;;;0.99;100.00
30421;BME280;17218;54.070;10.012;2023-04-02T01:57:26;101622.34;;;1.10;100.00
30421;BME280;17218;54.070;10.012;2023-04-02T01:59:54;101619.25;;;1.17;100.00
30421;BME280;17218;54.070;10.012;2023-04-02T02:02:21;101624.78;;;1.27;100.00
30421;BME280;17218;54.070;10.012;2023-04-02T02:04:48;101626.53;;;1.28;100.00
30421;BME280;17218;54.070;10.012;2023-04-02T02:07:17;101633.47;;;1.30;100.00
30421;BME280;17218;54.070;10.012;2023-04-02T02:09:45;101643.88;;;1.35;100.00
30421;BME280;17218;54.070;10.012;2023-04-02T02:12:14;101636.00;;;1.30;100.00
30421;BME280;17218;54.070;10.012;2023-04-02T02:14:45;101647.88;;;1.30;100.00
30421;BME280;17218;54.070;10.012;2023-04-02T02:17:14;101641.72;;;1.25;100.00
30421;BME280;17218;54.070;10.012;2023-04-02T02:19:43;101640.41;;;1.33;100.00
30421;BME280;17218;54.070;10.012;2023-04-02T02:22:15;101644.16;;;1.41;100.00
30421;BME280;17218;54.070;10.012;2023-04-02T02:24:43;101650.16;;;1.42;100.00
30421;BME280;17218;54.070;10.012;2023-04-02T02:27:36;101649.44;;;1.46;100.00
30421;BME280;17218;54.070;10.012;2023-04-02T02:30:11;101648.94;;;1.53;100.00
30421;BME280;17218;54.070;10.012;2023-04-02T02:32:46;101656.88;;;1.60;100.00
30421;BME280;17218;54.070;10.012;2023-04-02T02:35:18;101662.09;;;1.63;100.00
30421;BME280;17218;54.070;10.012;2023-04-02T02:37:51;101664.00;;;1.67;100.00
30421;BME280;17218;54.070;10.012;2023-04-02T02:40:25;101666.84;;;1.53;100.00
30421;BME280;17218;54.070;10.012;2023-04-02T02:42:55;101674.50;;;1.53;100.00
30421;BME280;17218;54.070;10.012;2023-04-02T02:45:26;101678.31;;;1.43;100.00
30421;BME280;17218;54.070;10.012;2023-04-02T02:47:55;101686.53;;;1.38;100.00
30421;BME280;17218;54.070;10.012;2023-04-02T02:50:24;101687.28;;;1.35;100.00
30421;BME280;17218;54.070;10.012;2023-04-02T02:52:53;101695.03;;;1.37;100.00
30421;BME280;17218;54.070;10.012;2023-04-02T02:55:22;101694.56;;;1.46;100.00
30421;BME280;17218;54.070;10.012;2023-04-02T02:57:54;101693.50;;;1.60;100.00
30421;BME280;17218;54.070;10.012;2023-04-02T03:00:23;101710.75;;;1.64;100.00
30421;BME280;17218;54.070;10.012;2023-04-02T03:02:51;101706.28;;;1.60;100.00
30421;BME280;17218;54.070;10.012;2023-04-02T03:05:23;101706.47;;;1.65;100.00
30421;BME280;17218;54.070;10.012;2023-04-02T03:14:39;101720.50;;;1.93;100.00
30421;BME280;17218;54.070;10.012;2023-04-02T03:17:10;101727.91;;;2.07;100.00
30421;BME280;17218;54.070;10.012;2023-04-02T03:19:42;101724.75;;;2.12;100.00
30421;BME280;17218;54.070;10.012;2023-04-02T03:22:14;101728.31;;;2.16;100.00
30421;BME280;17218;54.070;10.012;2023-04-02T03:24:48;101729.44;;;2.23;100.00
30421;BME280;17218;54.070;10.012;2023-04-02T03:27:19;101743.13;;;2.23;100.00
30421;BME280;17218;54.070;10.012;2023-04-02T03:29:57;101745.72;;;2.25;100.00
30421;BME280;17218;54.070;10.012;2023-04-02T03:32:31;101749.47;;;2.33;100.00
30421;BME280;17218;54.070;10.012;2023-04-02T03:35:03;101750.50;;;2.37;100.00
30421;BME280;17218;54.070;10.012;2023-04-02T03:37:40;101767.00;;;2.44;100.00
30421;BME280;17218;54.070;10.012;2023-04-02T03:40:14;101770.56;;;2.47;100.00
30421;BME280;17218;54.070;10.012;2023-04-02T03:42:45;101776.53;;;2.48;100.00
30421;BME280;17218;54.070;10.012;2023-04-02T03:45:16;101780.91;;;2.50;100.00
30421;BME280;17218;54.070;10.012;2023-04-02T03:47:46;101778.34;;;2.50;100.00
30421;BME280;17218;54.070;10.012;2023-04-02T03:50:20;101777.06;;;2.60;100.00
30421;BME280;17218;54.070;10.012;2023-04-02T03:52:50;101789.81;;;2.59;100.00
30421;BME280;17218;54.070;10.012;2023-04-02T03:55:20;101791.59;;;2.61;100.00
30421;BME280;17218;54.070;10.012;2023-04-02T03:57:54;101800.50;;;2.70;100.00
30421;BME280;17218;54.070;10.012;2023-04-02T04:00:25;101794.63;;;2.72;100.00
30421;BME280;17218;54.070;10.012;2023-04-02T04:03:01;101809.44;;;2.60;100.00
30421;BME280;17218;54.070;10.012;2023-04-02T04:05:29;101820.88;;;2.68;100.00
30421;BME280;17218;54.070;10.012;2023-04-02T04:08:02;101820.69;;;2.64;100.00
30421;BME280;17218;54.070;10.012;2023-04-02T04:10:30;101823.25;;;2.64;100.00
30421;BME280;17218;54.070;10.012;2023-04-02T04:13:02;101826.41;;;2.58;100.00
30421;BME280;17218;54.070;10.012;2023-04-02T04:15:33;101835.16;;;2.63;100.00
30421;BME280;17218;54.070;10.012;2023-04-02T04:18:04;101840.28;;;2.63;100.00
30421;BME280;17218;54.070;10.012;2023-04-02T04:20:39;101844.19;;;2.55;100.00
30421;BME280;17218;54.070;10.012;2023-04-02T04:23:17;101849.97;;;2.50;100.00
30421;BME280;17218;54.070;10.012;2023-04-02T04:25:56;101856.75;;;2.50;100.00
30421;BME280;17218;54.070;10.012;2023-04-02T04:28:25;101857.25;;;2.41;100.00
30421;BME280;17218;54.070;10.012;2023-04-02T04:30:58;101857.72;;;2.32;100.00
30421;BME280;17218;54.070;10.012;2023-04-02T04:33:30;101860.88;;;2.26;100.00
30421;BME280;17218;54.070;10.012;2023-04-02T04:36:05;101867.59;;;2.24;100.00
30421;BME280;17218;54.070;10.012;2023-04-02T04:38:45;101874.19;;;2.19;100.00
30421;BME280;17218;54.070;10.012;2023-04-02T04:41:15;101889.44;;;2.18;100.00
30421;BME280;17218;54.070;10.012;2023-04-02T04:43:47;101890.09;;;2.13;100.00
30421;BME280;17218;54.070;10.012;2023-04-02T04:46:19;101897.84;;;2.15;100.00
30421;BME280;17218;54.070;10.012;2023-04-02T04:48:51;101880.09;;;2.18;100.00
30421;BME280;17218;54.070;10.012;2023-04-02T04:51:23;101893.38;;;2.11;100.00
30421;BME280;17218;54.070;10.012;2023-04-02T04:53:53;101902.53;;;2.06;100.00
30421;BME280;17218;54.070;10.012;2023-04-02T04:56:22;101893.84;;;2.02;100.00
30421;BME280;17218;54.070;10.012;2023-04-02T04:58:53;101912.47;;;1.99;100.00
30421;BME280;17218;54.070;10.012;2023-04-02T05:01:24;101908.03;;;1.95;100.00
30421;BME280;17218;54.070;10.012;2023-04-02T05:03:58;101911.28;;;1.93;100.00
30421;BME280;17218;54.070;10.012;2023-04-02T05:06:34;101923.03;;;1.89;100.00
30421;BME280;17218;54.070;10.012;2023-04-02T05:09:10;101919.41;;;1.84;100.00
30421;BME280;17218;54.070;10.012;2023-04-02T05:11:41;101923.41;;;1.78;100.00
30421;BME280;17218;54.070;10.012;2023-04-02T05:14:19;101925.03;;;1.76;100.00
30421;BME280;17218;54.070;10.012;2023-04-02T05:16:52;101936.56;;;1.68;100.00
30421;BME280;17218;54.070;10.012;2023-04-02T05:19:24;101932.97;;;1.64;100.00
30421;BME280;17218;54.070;10.012;2023-04-02T05:21:57;101948.13;;;1.61;100.00
30421;BME280;17218;54.070;10.012;2023-04-02T05:24:36;101946.59;;;1.65;100.00
30421;BME280;17218;54.070;10.012;2023-04-02T05:27:15;101952.16;;;1.56;100.00
30421;BME280;17218;54.070;10.012;2023-04-02T05:29:46;101960.44;;;1.52;100.00
30421;BME280;17218;54.070;10.012;2023-04-02T05:32:18;101959.88;;;1.58;100.00
30421;BME280;17218;54.070;10.012;2023-04-02T05:34:49;101974.09;;;1.52;100.00
30421;BME280;17218;54.070;10.012;2023-04-02T05:37:20;101974.09;;;1.52;100.00
30421;BME280;17218;54.070;10.012;2023-04-02T05:39:52;101971.63;;;1.54;100.00
30421;BME280;17218;54.070;10.012;2023-04-02T05:42:22;101977.69;;;1.56;100.00
30421;BME280;17218;54.070;10.012;2023-04-02T05:44:58;101987.28;;;1.60;100.00
30421;BME280;17218;54.070;10.012;2023-04-02T05:47:30;101985.00;;;1.66;100.00
30421;BME280;17218;54.070;10.012;2023-04-02T05:50:09;102001.06;;;1.64;100.00
30421;BME280;17218;54.070;10.012;2023-04-02T05:52:41;102002.25;;;1.71;100.00
30421;BME280;17218;54.070;10.012;2023-04-02T05:55:27;102007.34;;;1.71;100.00
30421;BME280;17218;54.070;10.012;2023-04-02T05:58:01;102005.03;;;1.75;100.00
30421;BME280;17218;54.070;10.012;2023-04-02T06:00:44;102014.53;;;1.78;100.00
30421;BME280;17218;54.070;10.012;2023-04-02T06:03:18;102017.06;;;1.78;100.00
30421;BME280;17218;54.070;10.012;2023-04-02T06:05:50;102016.75;;;1.88;100.00
30421;BME280;17218;54.070;10.012;2023-04-02T06:08:20;102001.63;;;1.93;100.00
30421;BME280;17218;54.070;10.012;2023-04-02T06:10:51;102008.91;;;1.85;100.00
30421;BME280;17218;54.070;10.012;2023-04-02T06:13:20;102011.06;;;1.94;100.00
30421;BME280;17218;54.070;10.012;2023-04-02T06:15:47;102017.03;;;1.95;100.00
30421;BME280;17218;54.070;10.012;2023-04-02T06:18:15;102029.09;;;1.97;100.00
30421;BME280;17218;54.070;10.012;2023-04-02T06:20:42;102023.38;;;1.85;100.00
30421;BME280;17218;54.070;10.012;2023-04-02T06:23:13;102025.19;;;1.87;100.00
30421;BME280;17218;54.070;10.012;2023-04-02T06:25:44;102041.00;;;1.97;100.00
30421;BME280;17218;54.070;10.012;2023-04-02T06:28:16;102040.75;;;2.09;100.00
30421;BME280;17218;54.070;10.012;2023-04-02T06:30:45;102057.38;;;2.19;100.00
30421;BME280;17218;54.070;10.012;2023-04-02T06:33:13;102057.03;;;2.29;100.00
30421;BME280;17218;54.070;10.012;2023-04-02T06:35:41;102076.25;;;2.39;100.00
30421;BME280;17218;54.070;10.012;2023-04-02T06:38:15;102067.13;;;2.44;100.00
30421;BME280;17218;54.070;10.012;2023-04-02T06:40:45;102068.38;;;2.53;100.00
30421;BME280;17218;54.070;10.012;2023-04-02T06:43:20;102081.53;;;2.60;100.00
30421;BME280;17218;54.070;10.012;2023-04-02T06:45:50;102072.44;;;2.67;100.00
30421;BME280;17218;54.070;10.012;2023-04-02T06:48:18;102083.66;;;2.69;100.00
30421;BME280;17218;54.070;10.012;2023-04-02T06:50:47;102085.25;;;2.67;100.00
30421;BME280;17218;54.070;10.012;2023-04-02T06:53:19;102094.66;;;2.68;100.00
30421;BME280;17218;54.070;10.012;2023-04-02T06:55:49;102099.13;;;2.72;100.00
30421;BME280;17218;54.070;10.012;2023-04-02T06:58:19;102104.50;;;2.77;100.00
30421;BME280;17218;54.070;10.012;2023-04-02T07:00:47;102103.66;;;2.78;100.00
30421;BME280;17218;54.070;10.012;2023-04-02T07:03:16;102101.34;;;2.83;100.00
30421;BME280;17218;54.070;10.012;2023-04-02T07:05:45;102108.13;;;2.82;100.00
30421;BME280;17218;54.070;10.012;2023-04-02T07:08:11;102111.31;;;2.96;100.00
30421;BME280;17218;54.070;10.012;2023-04-02T07:10:38;102097.94;;;3.02;100.00
30421;BME280;17218;54.070;10.012;2023-04-02T07:13:04;102108.69;;;2.95;100.00
30421;BME280;17218;54.070;10.012;2023-04-02T07:15:33;102107.63;;;2.90;100.00
30421;BME280;17218;54.070;10.012;2023-04-02T07:18:00;102116.19;;;2.90;100.00
30421;BME280;17218;54.070;10.012;2023-04-02T07:20:28;102120.69;;;2.96;100.00
30421;BME280;17218;54.070;10.012;2023-04-02T07:22:55;102118.34;;;3.01;100.00
30421;BME280;17218;54.070;10.012;2023-04-02T07:25:22;102133.19;;;3.08;100.00
30421;BME280;17218;54.070;10.012;2023-04-02T07:27:50;102134.16;;;3.10;100.00
30421;BME280;17218;54.070;10.012;2023-04-02T07:30:17;102135.59;;;3.23;100.00
30421;BME280;17218;54.070;10.012;2023-04-02T07:32:45;102137.63;;;3.30;100.00
30421;BME280;17218;54.070;10.012;2023-04-02T07:35:11;102140.59;;;3.40;100.00
30421;BME280;17218;54.070;10.012;2023-04-02T07:37:38;102141.69;;;3.45;100.00
30421;BME280;17218;54.070;10.012;2023-04-02T07:40:06;102155.09;;;3.39;100.00
30421;BME280;17218;54.070;10.012;2023-04-02T07:42:40;102152.81;;;3.45;100.00
30421;BME280;17218;54.070;10.012;2023-04-02T07:45:08;102154.78;;;3.51;100.00
30421;BME280;17218;54.070;10.012;2023-04-02T07:47:34;102166.47;;;3.64;100.00
30421;BME280;17218;54.070;10.012;2023-04-02T07:50:02;102171.66;;;3.66;100.00
30421;BME280;17218;54.070;10.012;2023-04-02T07:52:29;102174.28;;;3.67;100.00
30421;BME280;17218;54.070;10.012;2023-04-02T07:54:56;102179.53;;;3.70;100.00
30421;BME280;17218;54.070;10.012;2023-04-02T07:57:22;102181.00;;;3.65;100.00
30421;BME280;17218;54.070;10.012;2023-04-02T07:59:49;102196.13;;;3.79;100.00
30421;BME280;17218;54.070;10.012;2023-04-02T08:02:17;102194.09;;;3.91;100.00
30421;BME280;17218;54.070;10.012;2023-04-02T08:04:44;102192.75;;;4.00;100.00
30421;BME280;17218;54.070;10.012;2023-04-02T08:07:12;102197.41;;;4.09;100.00
30421;BME280;17218;54.070;10.012;2023-04-02T08:09:39;102198.72;;;4.20;100.00
30421;BME280;17218;54.070;10.012;2023-04-02T08:12:05;102193.66;;;4.22;100.00
30421;BME280;17218;54.070;10.012;2023-04-02T08:14:32;102194.53;;;4.22;100.00
30421;BME280;17218;54.070;10.012;2023-04-02T08:16:58;102209.25;;;4.26;100.00
30421;BME280;17218;54.070;10.012;2023-04-02T08:19:25;102200.00;;;4.30;100.00
30421;BME280;17218;54.070;10.012;2023-04-02T08:21:52;102200.19;;;4.35;100.00
30421;BME280;17218;54.070;10.012;2023-04-02T08:24:21;102213.41;;;4.44;100.00
30421;BME280;17218;54.070;10.012;2023-04-02T08:26:48;102215.41;;;4.51;100.00
30421;BME280;17218;54.070;10.012;2023-04-02T08:29:15;102209.16;;;4.66;100.00
30421;BME280;17218;54.070;10.012;2023-04-02T08:31:42;102207.69;;;4.71;100.00
30421;BME280;17218;54.070;10.012;2023-04-02T08:34:09;102215.88;;;4.84;100.00
30421;BME280;17218;54.070;10.012;2023-04-02T08:36:37;102231.66;;;4.93;100.00
30421;BME280;17218;54.070;10.012;2023-04-02T08:39:06;102217.31;;;4.98;100.00
30421;BME280;17218;54.070;10.012;2023-04-02T08:41:41;102232.50;;;5.15;100.00
30421;BME280;17218;54.070;10.012;2023-04-02T08:44:17;102235.38;;;5.23;100.00
30421;BME280;17218;54.070;10.012;2023-04-02T08:46:48;102236.59;;;5.33;100.00
30421;BME280;17218;54.070;10.012;2023-04-02T08:49:21;102239.59;;;5.44;100.00
30421;BME280;17218;54.070;10.012;2023-04-02T08:51:53;102240.88;;;5.55;100.00
30421;BME280;17218;54.070;10.012;2023-04-02T08:54:23;102248.16;;;5.66;100.00
30421;BME280;17218;54.070;10.012;2023-04-02T08:56:54;102252.06;;;5.56;100.00
30421;BME280;17218;54.070;10.012;2023-04-02T08:59:28;102253.34;;;5.67;100.00
30421;BME280;17218;54.070;10.012;2023-04-02T09:02:03;102260.66;;;5.81;100.00
30421;BME280;17218;54.070;10.012;2023-04-02T09:04:32;102260.81;;;5.84;100.00
30421;BME280;17218;54.070;10.012;2023-04-02T09:06:59;102265.16;;;5.87;100.00
30421;BME280;17218;54.070;10.012;2023-04-02T09:09:26;102257.84;;;5.97;100.00
30421;BME280;17218;54.070;10.012;2023-04-02T09:11:55;102265.97;;;6.08;100.00
30421;BME280;17218;54.070;10.012;2023-04-02T09:14:28;102278.56;;;6.01;100.00
30421;BME280;17218;54.070;10.012;2023-04-02T09:17:00;102282.13;;;6.04;100.00
30421;BME280;17218;54.070;10.012;2023-04-02T09:19:32;102276.16;;;6.05;100.00
30421;BME280;17218;54.070;10.012;2023-04-02T09:22:05;102281.81;;;5.96;100.00
30421;BME280;17218;54.070;10.012;2023-04-02T09:24:34;102278.38;;;5.96;100.00
30421;BME280;17218;54.070;10.012;2023-04-02T09:27:03;102274.41;;;6.04;100.00
30421;BME280;17218;54.070;10.012;2023-04-02T09:29:42;102290.03;;;6.09;100.00
30421;BME280;17218;54.070;10.012;2023-04-02T09:32:20;102295.06;;;6.06;100.00
30421;BME280;17218;54.070;10.012;2023-04-02T09:34:49;102291.28;;;6.20;100.00
30421;BME280;17218;54.070;10.012;2023-04-02T09:37:18;102292.50;;;6.30;100.00
30421;BME280;17218;54.070;10.012;2023-04-02T09:39:45;102301.88;;;6.28;100.00
30421;BME280;17218;54.070;10.012;2023-04-02T09:45:14;102306.78;;;6.47;100.00
30421;BME280;17218;54.070;10.012;2023-04-02T09:47:44;102311.28;;;6.52;100.00
30421;BME280;17218;54.070;10.012;2023-04-02T09:50:24;102314.88;;;6.58;100.00
30421;BME280;17218;54.070;10.012;2023-04-02T09:52:52;102316.00;;;6.66;100.00
30421;BME280;17218;54.070;10.012;2023-04-02T09:55:21;102327.44;;;6.73;100.00
30421;BME280;17218;54.070;10.012;2023-04-02T09:58:06;102334.31;;;6.74;100.00
30421;BME280;17218;54.070;10.012;2023-04-02T10:00:34;102337.81;;;6.76;100.00
30421;BME280;17218;54.070;10.012;2023-04-02T10:03:04;102345.50;;;6.74;100.00
30421;BME280;17218;54.070;10.012;2023-04-02T10:05:32;102349.06;;;6.78;100.00
30421;BME280;17218;54.070;10.012;2023-04-02T10:08:11;102351.53;;;6.75;100.00
30421;BME280;17218;54.070;10.012;2023-04-02T10:10:43;102349.00;;;6.76;100.00
30421;BME280;17218;54.070;10.012;2023-04-02T10:13:17;102351.63;;;6.78;100.00
30421;BME280;17218;54.070;10.012;2023-04-02T10:15:50;102350.97;;;6.84;100.00
30421;BME280;17218;54.070;10.012;2023-04-02T10:18:23;102349.88;;;7.03;100.00
30421;BME280;17218;54.070;10.012;2023-04-02T10:20:54;102356.09;;;7.08;100.00
30421;BME280;17218;54.070;10.012;2023-04-02T10:23:23;102357.06;;;7.12;100.00
30421;BME280;17218;54.070;10.012;2023-04-02T10:25:57;102374.19;;;7.10;100.00
30421;BME280;17218;54.070;10.012;2023-04-02T10:28:38;102366.16;;;7.28;100.00
30421;BME280;17218;54.070;10.012;2023-04-02T10:31:15;102369.72;;;7.32;100.00
30421;BME280;17218;54.070;10.012;2023-04-02T10:33:49;102363.50;;;7.53;100.00
30421;BME280;17218;54.070;10.012;2023-04-02T10:36:25;102364.53;;;7.58;100.00
30421;BME280;17218;54.070;10.012;2023-04-02T10:38:59;102383.44;;;7.58;100.00
30421;BME280;17218;54.070;10.012;2023-04-02T10:41:32;102389.66;;;7.63;100.00
30421;BME280;17218;54.070;10.012;2023-04-02T10:44:18;102384.47;;;7.63;100.00
30421;BME280;17218;54.070;10.012;2023-04-02T10:46:57;102386.22;;;7.64;100.00
30421;BME280;17218;54.070;10.012;2023-04-02T10:49:31;102390.19;;;7.82;100.00
30421;BME280;17218;54.070;10.012;2023-04-02T10:52:04;102396.94;;;8.06;100.00
30421;BME280;17218;54.070;10.012;2023-04-02T10:54:40;102395.50;;;8.16;100.00
30421;BME280;17218;54.070;10.012;2023-04-02T10:57:18;102401.16;;;8.33;100.00
30421;BME280;17218;54.070;10.012;2023-04-02T10:59:48;102406.25;;;8.59;100.00
30421;BME280;17218;54.070;10.012;2023-04-02T11:02:30;102401.63;;;8.80;100.00
30421;BME280;17218;54.070;10.012;2023-04-02T11:05:02;102402.50;;;9.14;100.00
30421;BME280;17218;54.070;10.012;2023-04-02T11:07:42;102408.94;;;9.32;100.00
30421;BME280;17218;54.070;10.012;2023-04-02T11:10:13;102410.75;;;9.35;100.00
30421;BME280;17218;54.070;10.012;2023-04-02T11:12:46;102414.97;;;9.66;100.00
30421;BME280;17218;54.070;10.012;2023-04-02T11:15:15;102413.38;;;10.13;100.00
30421;BME280;17218;54.070;10.012;2023-04-02T11:17:45;102427.88;;;10.89;100.00
30421;BME280;17218;54.070;10.012;2023-04-02T11:23:29;102423.25;;;14.95;96.44
30421;BME280;17218;54.070;10.012;2023-04-02T11:26:27;102421.22;;;16.52;55.98
30421;BME280;17218;54.070;10.012;2023-04-02T11:32:14;102410.72;;;19.99;39.80
30421;BME280;17218;54.070;10.012;2023-04-02T11:37:44;102414.63;;;22.32;39.82
30421;BME280;17218;54.070;10.012;2023-04-02T11:40:39;102418.03;;;23.46;38.24
30421;BME280;17218;54.070;10.012;2023-04-02T11:49:35;102428.94;;;26.41;31.78
30421;BME280;17218;54.070;10.012;2023-04-02T11:52:21;102434.78;;;27.90;29.19
30421;BME280;17218;54.070;10.012;2023-04-02T11:55:19;102433.94;;;27.02;27.94
30421;BME280;17218;54.070;10.012;2023-04-02T12:04:11;102446.94;;;27.78;29.54
30421;BME280;17218;54.070;10.012;2023-04-02T12:06:52;102437.53;;;28.21;27.50
30421;BME280;17218;54.070;10.012;2023-04-02T12:09:27;102441.38;;;28.31;27.69
30421;BME280;17218;54.070;10.012;2023-04-02T12:11:55;102441.94;;;28.22;26.82
30421;BME280;17218;54.070;10.012;2023-04-02T12:14:40;102442.16;;;27.85;26.18
30421;BME280;17218;54.070;10.012;2023-04-02T12:17:16;102458.72;;;26.67;28.31
30421;BME280;17218;54.070;10.012;2023-04-02T12:19:46;102462.41;;;26.46;29.30
30421;BME280;17218;54.070;10.012;2023-04-02T12:22:18;102460.28;;;26.89;28.82
30421;BME280;17218;54.070;10.012;2023-04-02T12:24:47;102467.50;;;27.92;27.50
30421;BME280;17218;54.070;10.012;2023-04-02T12:27:19;102477.88;;;29.25;28.55
30421;BME280;17218;54.070;10.012;2023-04-02T12:29:48;102467.81;;;30.45;25.98
30421;BME280;17218;54.070;10.012;2023-04-02T12:32:23;102464.59;;;30.81;25.05
30421;BME280;17218;54.070;10.012;2023-04-02T12:34:50;102480.19;;;27.53;24.56
30421;BME280;17218;54.070;10.012;2023-04-02T12:37:23;102483.56;;;26.28;27.11
30421;BME280;17218;54.070;10.012;2023-04-02T12:39:54;102482.50;;;26.88;27.95
30421;BME280;17218;54.070;10.012;2023-04-02T12:42:26;102472.91;;;27.39;26.96
30421;BME280;17218;54.070;10.012;2023-04-02T12:44:53;102474.66;;;25.90;27.82
30421;BME280;17218;54.070;10.012;2023-04-02T12:47:19;102488.41;;;25.58;29.96
30421;BME280;17218;54.070;10.012;2023-04-02T12:49:46;102483.44;;;26.87;28.56
30421;BME280;17218;54.070;10.012;2023-04-02T12:52:14;102483.34;;;26.71;30.01
30421;BME280;17218;54.070;10.012;2023-04-02T12:54:44;102472.06;;;27.90;26.03
30421;BME280;17218;54.070;10.012;2023-04-02T12:57:33;102485.63;;;27.50;27.17
30421;BME280;17218;54.070;10.012;2023-04-02T13:00:25;102479.63;;;25.98;27.69
30421;BME280;17218;54.070;10.012;2023-04-02T13:02:51;102476.44;;;26.67;28.93
30421;BME280;17218;54.070;10.012;2023-04-02T13:05:34;102488.81;;;27.41;27.50
30421;BME280;17218;54.070;10.012;2023-04-02T13:08:04;102490.72;;;25.45;28.54
30421;BME280;17218;54.070;10.012;2023-04-02T13:10:31;102484.66;;;25.83;28.26
30421;BME280;17218;54.070;10.012;2023-04-02T13:13:00;102484.03;;;27.47;29.32
30421;BME280;17218;54.070;10.012;2023-04-02T13:15:30;102485.88;;;29.25;27.39
30421;BME280;17218;54.070;10.012;2023-04-02T13:18:06;102496.81;;;28.25;26.31
30421;BME280;17218;54.070;10.012;2023-04-02T13:20:41;102484.94;;;30.14;25.67
30421;BME280;17218;54.070;10.012;2023-04-02T13:23:28;102497.66;;;31.21;24.22
30421;BME280;17218;54.070;10.012;2023-04-02T13:25:58;102508.72;;;28.51;24.84
30421;BME280;17218;54.070;10.012;2023-04-02T13:28:27;102502.59;;;27.31;26.88
30421;BME280;17218;54.070;10.012;2023-04-02T13:30:53;102509.13;;;27.59;24.80
30421;BME280;17218;54.070;10.012;2023-04-02T13:33:20;102504.81;;;28.08;26.39
30421;BME280;17218;54.070;10.012;2023-04-02T13:35:47;102511.53;;;28.32;25.41
30421;BME280;17218;54.070;10.012;2023-04-02T13:38:13;102510.78;;;27.26;26.09
30421;BME280;17218;54.070;10.012;2023-04-02T13:40:39;102517.53;;;28.03;26.05
30421;BME280;17218;54.070;10.012;2023-04-02T13:43:06;102517.09;;;28.76;25.35